createdAt,value
2022-08-16T00:01:16.878Z,6.67
2022-08-16T00:03:44.089Z,6.30
2022-08-16T00:06:12.020Z,6.53
2022-08-16T00:08:45.799Z,6.07
2022-08-16T00:11:15.178Z,7.43
2022-08-16T00:13:43.740Z,7.33
2022-08-16T00:17:00.777Z,6.73
2022-08-16T00:19:09.978Z,6.87
2022-08-16T00:21:40.993Z,8.03
2022-08-16T00:24:12.314Z,6.93
2022-08-16T00:26:45.336Z,6.30
2022-08-16T00:29:17.545Z,6.80
2022-08-16T00:32:00.430Z,7.40
2022-08-16T00:34:41.342Z,7.57
2022-08-16T00:37:17.203Z,8.33
2022-08-16T00:39:47.104Z,7.53
2022-08-16T00:42:14.697Z,8.17
2022-08-16T00:45:06.427Z,8.20
2022-08-16T00:47:37.089Z,7.20
2022-08-16T00:50:11.479Z,6.13
2022-08-16T00:52:46.018Z,7.60
2022-08-16T00:55:18.523Z,7.27
2022-08-16T00:57:58.621Z,8.80
2022-08-16T01:00:29.485Z,7.57
2022-08-16T01:03:01.633Z,8.10
2022-08-16T01:05:29.288Z,8.33
2022-08-16T01:07:57.461Z,9.57
2022-08-16T01:10:31.489Z,7.50
2022-08-16T01:13:04.641Z,9.10
2022-08-16T01:15:35.186Z,8.17
2022-08-16T01:18:04.953Z,8.40
2022-08-16T01:20:38.033Z,8.40
2022-08-16T01:23:17.316Z,8.00
2022-08-16T01:26:00.356Z,7.87
2022-08-16T01:28:38.786Z,8.17
2022-08-16T01:31:14.508Z,8.23
2022-08-16T01:33:44.406Z,7.23
2022-08-16T01:36:13.094Z,9.07
2022-08-16T01:38:47.096Z,8.80
2022-08-16T01:41:29.615Z,8.30
2022-08-16T01:44:01.437Z,9.50
2022-08-16T01:46:39.907Z,8.67
2022-08-16T01:49:43.534Z,9.30
2022-08-16T01:52:29.603Z,9.07
2022-08-16T01:54:57.922Z,8.60
2022-08-16T01:57:27.766Z,8.27
2022-08-16T01:59:58.667Z,9.90
2022-08-16T02:02:28.825Z,9.33
2022-08-16T02:04:57.386Z,8.87
2022-08-16T02:07:24.763Z,9.10
2022-08-16T02:09:58.828Z,7.60
2022-08-16T02:12:50.426Z,8.77
2022-08-16T02:15:25.307Z,9.30
2022-08-16T02:17:53.436Z,9.90
2022-08-16T02:20:26.444Z,9.27
2022-08-16T02:22:56.495Z,9.47
2022-08-16T02:25:24.052Z,9.10
2022-08-16T02:27:51.672Z,12.10
2022-08-16T02:30:37.130Z,10.87
2022-08-16T02:33:12.005Z,9.10
2022-08-16T02:35:49.843Z,8.50
2022-08-16T02:38:22.662Z,9.97
2022-08-16T02:40:50.031Z,11.40
2022-08-16T02:43:16.889Z,10.10
2022-08-16T02:45:44.416Z,9.13
2022-08-16T02:48:29.628Z,10.70
2022-08-16T02:51:06.977Z,10.40
2022-08-16T02:53:43.431Z,10.73
2022-08-16T02:56:14.764Z,11.30
2022-08-16T02:58:44.127Z,10.10
2022-08-16T03:01:24.795Z,10.23
2022-08-16T03:04:39.521Z,10.43
2022-08-16T03:06:43.125Z,10.47
2022-08-16T03:09:14.821Z,9.17
2022-08-16T03:11:42.586Z,10.30
2022-08-16T03:14:09.344Z,10.50
2022-08-16T03:16:42.249Z,10.97
2022-08-16T03:19:26.114Z,11.17
2022-08-16T03:22:13.186Z,9.90
2022-08-16T03:24:47.313Z,9.60
2022-08-16T03:27:14.565Z,10.97
2022-08-16T03:29:54.348Z,10.00
2022-08-16T03:32:21.744Z,10.37
2022-08-16T03:34:50.014Z,10.80
2022-08-16T03:37:17.547Z,10.10
2022-08-16T03:39:44.442Z,10.40
2022-08-16T03:42:11.503Z,9.40
2022-08-16T03:44:47.613Z,10.37
2022-08-16T03:47:18.519Z,10.40
2022-08-16T03:49:51.863Z,9.50
2022-08-16T03:52:23.542Z,10.73
2022-08-16T03:54:57.602Z,12.07
2022-08-16T03:57:32.145Z,10.83
2022-08-16T04:00:20.433Z,10.40
2022-08-16T04:03:09.060Z,11.90
2022-08-16T04:05:39.543Z,10.57
2022-08-16T04:08:23.197Z,11.00
2022-08-16T04:10:52.960Z,12.53
2022-08-16T04:13:59.209Z,11.40
2022-08-16T04:16:27.580Z,11.27
2022-08-16T04:19:02.337Z,11.20
2022-08-16T04:21:33.149Z,11.60
2022-08-16T04:24:03.657Z,12.33
2022-08-16T04:26:35.592Z,10.70
2022-08-16T04:29:15.123Z,12.50
2022-08-16T04:31:56.682Z,11.30
2022-08-16T04:34:31.069Z,11.50
2022-08-16T04:37:01.399Z,10.00
2022-08-16T04:39:45.927Z,11.30
2022-08-16T04:42:16.047Z,11.80
2022-08-16T04:44:54.397Z,11.40
2022-08-16T04:47:24.747Z,10.33
2022-08-16T04:49:52.674Z,11.30
2022-08-16T04:52:32.743Z,10.10
2022-08-16T04:55:05.317Z,12.40
2022-08-16T04:57:33.107Z,11.93
2022-08-16T05:00:31.694Z,10.97
2022-08-16T05:02:55.885Z,10.03
2022-08-16T05:05:32.946Z,12.83
2022-08-16T05:08:28.176Z,10.50
2022-08-16T05:11:05.723Z,10.10
2022-08-16T05:13:40.916Z,10.47
2022-08-16T05:16:21.737Z,11.87
2022-08-16T05:18:53.826Z,11.87
2022-08-16T05:21:24.702Z,11.53
2022-08-16T05:23:58.596Z,9.73
2022-08-16T05:26:33.473Z,10.10
2022-08-16T05:29:03.672Z,9.87
2022-08-16T05:31:31.831Z,11.00
2022-08-16T05:34:00.683Z,11.40
2022-08-16T05:36:33.893Z,10.27
2022-08-16T05:39:08.821Z,9.10
2022-08-16T05:41:45.212Z,8.90
2022-08-16T05:44:22.566Z,8.83
2022-08-16T05:46:56.501Z,8.00
2022-08-16T05:49:25.210Z,8.80
2022-08-16T05:52:11.682Z,9.00
2022-08-16T05:54:47.216Z,8.97
2022-08-16T05:57:18.509Z,9.60
2022-08-16T05:59:50.630Z,9.33
2022-08-16T06:02:28.966Z,7.13
2022-08-16T06:04:56.808Z,9.40
2022-08-16T06:07:24.575Z,9.43
2022-08-16T06:09:52.629Z,8.70
2022-08-16T06:12:27.166Z,9.13
2022-08-16T06:15:07.576Z,7.77
2022-08-16T06:17:41.739Z,7.50
2022-08-16T06:20:14.401Z,9.77
2022-08-16T06:22:44.519Z,9.20
2022-08-16T06:25:13.394Z,8.80
2022-08-16T06:27:57.064Z,7.23
2022-08-16T06:30:24.586Z,7.50
2022-08-16T06:32:55.933Z,6.90
2022-08-16T06:35:23.899Z,7.43
2022-08-16T06:37:51.527Z,7.83
2022-08-16T06:40:19.511Z,6.53
2022-08-16T06:42:47.777Z,6.50
2022-08-16T06:45:16.095Z,6.80
2022-08-16T06:47:52.977Z,6.17
2022-08-16T06:50:22.039Z,6.90
2022-08-16T06:53:19.761Z,6.80
2022-08-16T06:55:43.830Z,5.83
2022-08-16T06:58:22.671Z,5.13
2022-08-16T07:00:50.332Z,6.10
2022-08-16T07:03:28.279Z,6.10
2022-08-16T07:05:59.707Z,5.37
2022-08-16T07:08:30.042Z,5.70
2022-08-16T07:10:58.840Z,5.83
2022-08-16T07:13:57.781Z,5.97
2022-08-16T07:16:20.397Z,5.97
2022-08-16T07:18:58.187Z,4.60
2022-08-16T07:21:26.610Z,5.80
2022-08-16T07:23:58.049Z,5.30
2022-08-16T07:26:33.596Z,6.13
2022-08-16T07:29:01.115Z,4.93
2022-08-16T07:31:37.735Z,5.30
2022-08-16T07:34:04.973Z,4.10
2022-08-16T07:36:37.168Z,4.50
2022-08-16T07:39:05.908Z,4.90
2022-08-16T07:41:33.124Z,4.63
2022-08-16T07:44:01.698Z,5.30
2022-08-16T07:46:38.903Z,4.30
2022-08-16T07:49:11.207Z,4.83
2022-08-16T07:51:38.619Z,6.37
2022-08-16T07:54:10.917Z,4.73
2022-08-16T07:56:41.200Z,4.97
2022-08-16T07:59:08.286Z,5.20
2022-08-16T08:01:36.479Z,6.27
2022-08-16T08:04:11.308Z,4.70
2022-08-16T08:06:41.313Z,5.43
2022-08-16T08:09:08.082Z,4.37
2022-08-16T08:11:36.806Z,4.47
2022-08-16T08:14:06.631Z,5.10
2022-08-16T08:16:35.734Z,4.70
2022-08-16T08:19:04.211Z,4.73
2022-08-16T08:21:59.026Z,4.80
2022-08-16T08:24:22.631Z,4.80
2022-08-16T08:27:02.330Z,5.97
2022-08-16T08:29:37.496Z,4.27
2022-08-16T08:32:58.370Z,4.83
2022-08-16T08:34:52.963Z,4.30
2022-08-16T08:37:22.588Z,4.57
2022-08-16T08:39:54.935Z,5.20
2022-08-16T08:42:26.546Z,5.63
2022-08-16T08:44:54.339Z,5.90
2022-08-16T08:47:21.253Z,5.33
2022-08-16T08:49:55.098Z,5.23
2022-08-16T08:52:35.337Z,4.33
2022-08-16T08:55:12.950Z,4.70
2022-08-16T08:57:47.291Z,6.30
2022-08-16T09:00:21.213Z,6.07
2022-08-16T09:02:52.002Z,7.57
2022-08-16T09:05:22.397Z,5.80
2022-08-16T09:08:00.924Z,4.57
2022-08-16T09:10:33.817Z,5.93
2022-08-16T09:13:08.584Z,5.77
2022-08-16T09:15:38.189Z,5.30
2022-08-16T09:18:26.194Z,6.00
2022-08-16T09:20:59.503Z,4.80
2022-08-16T09:23:36.437Z,4.77
2022-08-16T09:26:44.607Z,4.97
2022-08-16T09:29:17.125Z,6.43
2022-08-16T09:31:43.595Z,5.47
2022-08-16T09:34:15.862Z,5.80
2022-08-16T09:36:46.430Z,4.67
2022-08-16T09:39:16.047Z,6.10
2022-08-16T09:41:44.065Z,6.27
2022-08-16T09:45:09.568Z,6.00
2022-08-16T09:47:11.233Z,5.77
2022-08-16T09:49:41.073Z,6.13
2022-08-16T09:52:09.826Z,5.80
2022-08-16T09:54:37.935Z,6.70
2022-08-16T09:57:05.068Z,6.57
2022-08-16T09:59:38.469Z,6.13
2022-08-16T10:02:26.725Z,6.37
2022-08-16T10:04:55.496Z,6.63
2022-08-16T10:07:26.842Z,6.80
2022-08-16T10:10:11.893Z,6.40
2022-08-16T10:12:57.228Z,6.00
2022-08-16T10:15:30.305Z,7.00
2022-08-16T10:18:01.106Z,6.93
2022-08-16T10:20:34.152Z,7.13
2022-08-16T10:23:07.963Z,6.70
2022-08-16T10:27:16.384Z,7.23
2022-08-16T10:28:32.622Z,6.87
2022-08-16T10:31:07.278Z,6.40
2022-08-16T10:33:34.987Z,6.07
2022-08-16T10:36:08.951Z,7.50
2022-08-16T10:38:38.064Z,6.70
2022-08-16T10:41:07.173Z,6.40
2022-08-16T10:43:35.470Z,7.00
2022-08-16T10:46:04.061Z,6.37
2022-08-16T10:48:50.802Z,6.77
2022-08-16T10:51:19.211Z,6.30
2022-08-16T10:53:46.140Z,6.50
2022-08-16T10:56:44.315Z,5.83
2022-08-16T11:13:21.045Z,5.03
2022-08-16T11:15:49.828Z,5.00
2022-08-16T11:19:04.361Z,6.40
2022-08-16T11:21:10.422Z,5.87
2022-08-16T11:23:58.968Z,6.27
2022-08-16T11:26:27.034Z,6.27
2022-08-16T11:29:13.207Z,5.83
2022-08-16T11:31:45.558Z,5.47
2022-08-16T11:34:21.182Z,5.47
2022-08-16T11:36:53.616Z,6.10
2022-08-16T11:39:27.196Z,5.47
2022-08-16T11:41:56.715Z,6.30
2022-08-16T11:44:51.942Z,5.90
2022-08-16T11:47:12.736Z,5.50
2022-08-16T11:49:39.489Z,5.47
2022-08-16T11:52:07.861Z,5.63
2022-08-16T11:54:36.824Z,5.63
2022-08-16T11:57:09.443Z,5.87
2022-08-16T11:59:39.931Z,6.07
2022-08-16T12:02:32.068Z,5.57
2022-08-16T12:04:55.868Z,5.23
2022-08-16T12:07:25.544Z,5.80
2022-08-16T12:09:53.956Z,5.77
2022-08-16T12:12:23.731Z,4.83
2022-08-16T12:14:59.496Z,5.77
2022-08-16T12:17:29.175Z,5.40
2022-08-16T12:19:59.463Z,5.50
2022-08-16T12:22:30.069Z,4.90
2022-08-16T12:25:00.896Z,4.53
2022-08-16T12:27:47.247Z,5.37
2022-08-16T12:30:27.088Z,4.97
2022-08-16T12:33:03.066Z,4.53
2022-08-16T12:35:33.171Z,5.23
2022-08-16T12:38:23.088Z,5.73
2022-08-16T12:40:55.491Z,6.17
2022-08-16T12:43:23.808Z,4.90
2022-08-16T12:45:53.100Z,5.20
2022-08-16T12:48:42.404Z,4.70
2022-08-16T12:51:19.763Z,4.90
2022-08-16T12:53:47.702Z,5.13
2022-08-16T12:56:14.861Z,4.40
2022-08-16T12:58:48.396Z,4.73
2022-08-16T13:01:23.058Z,4.50
2022-08-16T13:04:08.206Z,5.07
2022-08-16T13:06:39.134Z,4.90
2022-08-16T13:09:20.413Z,4.53
2022-08-16T13:12:00.573Z,4.90
2022-08-16T13:14:50.076Z,4.60
2022-08-16T13:17:26.486Z,5.57
2022-08-16T13:20:12.591Z,5.57
2022-08-16T13:22:50.377Z,5.00
2022-08-16T13:25:21.788Z,5.77
2022-08-16T13:28:02.950Z,5.00
2022-08-16T13:30:41.960Z,5.60
2022-08-16T13:33:16.474Z,5.50
2022-08-16T13:35:55.888Z,4.20
2022-08-16T13:38:26.109Z,4.27
2022-08-16T13:40:56.820Z,4.90
2022-08-16T13:43:26.868Z,5.00
2022-08-16T13:45:56.182Z,4.80
2022-08-16T13:48:26.030Z,5.10
2022-08-16T13:51:02.483Z,5.60
2022-08-16T13:53:31.123Z,4.60
2022-08-16T13:55:59.984Z,5.50
2022-08-16T13:58:34.651Z,4.97
2022-08-16T14:01:04.750Z,4.67
2022-08-16T14:03:37.423Z,4.80
2022-08-16T14:06:04.241Z,4.60
2022-08-16T14:08:31.409Z,4.47
2022-08-16T14:10:58.183Z,4.87
2022-08-16T14:13:25.458Z,4.40
2022-08-16T14:15:52.558Z,5.37
2022-08-16T14:18:20.828Z,5.00
2022-08-16T14:20:48.528Z,4.80
2022-08-16T14:23:16.234Z,6.03
2022-08-16T14:25:53.973Z,4.60
2022-08-16T14:28:25.912Z,5.07
2022-08-16T14:30:55.717Z,5.60
2022-08-16T14:33:23.072Z,5.33
2022-08-16T14:35:50.886Z,5.30
2022-08-16T14:38:23.830Z,4.83
2022-08-16T14:40:55.061Z,4.90
2022-08-16T14:43:24.397Z,5.03
2022-08-16T14:45:51.630Z,4.83
2022-08-16T14:48:26.395Z,4.63
2022-08-16T14:50:55.366Z,4.90
2022-08-16T14:53:24.374Z,4.77
2022-08-16T14:55:51.244Z,4.90
2022-08-16T14:58:20.252Z,5.57
2022-08-16T15:01:02.114Z,4.60
2022-08-16T15:03:33.011Z,5.40
2022-08-16T15:06:01.988Z,5.57
2022-08-16T15:08:37.282Z,4.63
2022-08-16T15:11:07.507Z,4.90
2022-08-16T15:13:38.959Z,5.37
2022-08-16T15:16:06.112Z,4.90
2022-08-16T15:18:33.849Z,4.10
2022-08-16T15:21:05.331Z,4.60
2022-08-16T15:23:36.828Z,4.73
2022-08-16T15:26:08.370Z,5.13
2022-08-16T15:28:38.522Z,4.63
2022-08-16T15:31:08.752Z,5.30
2022-08-16T15:33:43.558Z,4.40
2022-08-16T15:36:20.153Z,5.67
2022-08-16T15:39:02.134Z,5.00
2022-08-16T15:41:43.121Z,4.43
2022-08-16T15:44:21.284Z,4.70
2022-08-16T15:46:58.641Z,4.80
2022-08-16T15:49:37.934Z,4.60
2022-08-16T15:52:20.484Z,4.83
2022-08-16T15:54:52.374Z,4.30
2022-08-16T15:57:27.495Z,5.17
2022-08-16T16:00:04.215Z,4.63
2022-08-16T16:02:32.359Z,5.00
2022-08-16T16:05:07.396Z,3.93
2022-08-16T16:07:40.645Z,4.50
2022-08-16T16:10:13.697Z,4.30
2022-08-16T16:12:51.297Z,4.53
2022-08-16T16:15:25.937Z,4.50
2022-08-16T16:17:56.753Z,4.70
2022-08-16T16:20:27.179Z,5.13
2022-08-16T16:22:59.342Z,5.30
2022-08-16T16:25:27.065Z,4.70
2022-08-16T16:27:59.477Z,4.80
2022-08-16T16:30:37.676Z,5.20
2022-08-16T16:33:21.402Z,5.10
2022-08-16T16:35:56.845Z,5.60
2022-08-16T16:38:31.195Z,5.23
2022-08-16T16:41:02.225Z,4.60
2022-08-16T16:43:31.311Z,4.33
2022-08-16T16:46:41.055Z,5.30
2022-08-16T16:48:53.862Z,4.70
2022-08-16T16:51:22.692Z,3.90
2022-08-16T16:53:56.206Z,4.07
2022-08-16T16:56:27.509Z,4.47
2022-08-16T16:59:01.707Z,4.80
2022-08-16T17:01:59.303Z,4.50
2022-08-16T17:04:31.850Z,3.70
2022-08-16T17:07:01.202Z,4.87
2022-08-16T17:09:28.413Z,4.03
2022-08-16T17:11:56.798Z,4.77
2022-08-16T17:14:33.503Z,4.73
2022-08-16T17:17:09.054Z,4.33
2022-08-16T17:19:40.296Z,4.20
2022-08-16T17:22:14.562Z,4.50
2022-08-16T17:24:45.027Z,3.73
2022-08-16T17:27:17.698Z,4.47
2022-08-16T17:29:47.648Z,4.63
2022-08-16T17:32:33.903Z,3.60
2022-08-16T17:35:17.525Z,4.50
2022-08-16T17:37:50.741Z,3.77
2022-08-16T17:40:40.504Z,14.03
2022-08-16T17:43:13.864Z,4.50
2022-08-16T17:45:41.573Z,11.37
2022-08-16T17:48:08.881Z,5.30
2022-08-16T17:50:37.175Z,6.20
2022-08-16T17:53:04.962Z,5.70
2022-08-16T17:55:37.625Z,5.30
2022-08-16T17:58:17.549Z,6.10
2022-08-16T18:00:53.408Z,23.37
2022-08-16T18:04:08.914Z,4.70
2022-08-16T18:06:13.665Z,4.17
2022-08-16T18:08:42.670Z,5.77
2022-08-16T18:11:10.527Z,6.00
2022-08-16T18:13:43.493Z,8.97
2022-08-16T18:16:11.419Z,6.20
2022-08-16T18:18:39.032Z,4.87
2022-08-16T18:21:24.547Z,4.33
2022-08-16T18:23:51.530Z,5.50
2022-08-16T18:26:18.305Z,5.13
2022-08-16T18:28:45.060Z,4.73
2022-08-16T18:31:12.220Z,5.80
2022-08-16T18:33:43.416Z,6.77
2022-08-16T18:36:20.484Z,5.27
2022-08-16T18:38:52.158Z,4.50
2022-08-16T18:41:20.942Z,5.17
2022-08-16T18:44:22.772Z,5.20
2022-08-16T18:46:34.913Z,5.20
2022-08-16T18:49:01.722Z,4.90
2022-08-16T18:51:28.573Z,5.63
2022-08-16T18:53:55.801Z,5.10
2022-08-16T18:56:23.549Z,4.10
2022-08-16T18:59:11.897Z,4.13
2022-08-16T19:01:41.213Z,6.17
2022-08-16T19:06:49.793Z,4.27
2022-08-16T19:09:17.980Z,6.43
2022-08-16T19:11:45.484Z,4.63
2022-08-16T19:14:12.700Z,4.90
2022-08-16T19:25:46.886Z,4.33
2022-08-16T19:28:52.087Z,6.17
2022-08-16T19:31:11.732Z,7.43
2022-08-16T19:33:53.409Z,6.77
2022-08-16T19:36:37.198Z,5.87
2022-08-16T19:39:10.549Z,5.60
2022-08-16T19:41:39.781Z,5.27
2022-08-16T19:44:11.636Z,6.27
2022-08-16T19:46:41.721Z,10.30
2022-08-16T19:49:08.881Z,6.33
2022-08-16T19:51:37.832Z,5.20
2022-08-16T19:54:05.848Z,5.70
2022-08-16T19:56:32.942Z,5.77
2022-08-16T20:01:49.832Z,5.90
2022-08-16T20:04:18.625Z,6.27
2022-08-16T20:06:46.442Z,6.27
2022-08-16T20:09:15.304Z,6.00
2022-08-16T20:11:45.146Z,5.57
2022-08-16T20:14:24.822Z,5.97
2022-08-16T20:16:56.507Z,5.73
2022-08-16T20:19:25.082Z,5.00
2022-08-16T20:21:57.638Z,7.43
2022-08-16T20:24:35.977Z,7.10
2022-08-16T20:27:07.549Z,5.27
2022-08-16T20:29:36.394Z,6.53
2022-08-16T20:32:07.439Z,7.13
2022-08-16T20:34:35.919Z,7.13
2022-08-16T20:37:03.009Z,6.77
2022-08-16T20:39:30.400Z,6.83
2022-08-16T20:41:57.777Z,6.60
2022-08-16T20:44:25.183Z,7.10
2022-08-16T20:46:53.023Z,6.80
2022-08-16T20:49:19.850Z,7.83
2022-08-16T20:51:51.706Z,7.67
2022-08-16T20:54:20.416Z,7.50
2022-08-16T20:56:47.686Z,6.77
2022-08-16T20:59:14.910Z,6.63
2022-08-16T21:01:45.720Z,5.97
2022-08-16T21:04:14.762Z,5.93
2022-08-16T21:06:41.507Z,7.40
2022-08-16T21:09:26.391Z,7.67
2022-08-16T21:11:57.478Z,6.30
2022-08-16T21:14:25.326Z,7.60
2022-08-16T21:16:52.354Z,7.57
2022-08-16T21:19:20.383Z,7.63
2022-08-16T21:21:47.767Z,6.33
2022-08-16T21:24:15.422Z,6.40
2022-08-16T21:26:50.969Z,6.87
2022-08-16T21:29:27.911Z,8.17
2022-08-16T21:32:09.515Z,7.10
2022-08-16T21:34:36.958Z,7.07
2022-08-16T21:37:03.872Z,6.07
2022-08-16T21:39:31.759Z,7.10
2022-08-16T21:41:58.827Z,6.30
2022-08-16T21:44:32.546Z,7.10
2022-08-16T21:47:06.222Z,7.63
2022-08-16T21:49:37.088Z,6.90
2022-08-16T21:52:05.250Z,7.57
2022-08-16T21:54:32.454Z,7.77
2022-08-16T21:56:59.327Z,9.77
2022-08-16T21:59:26.470Z,7.67
2022-08-16T22:01:53.301Z,8.10
2022-08-16T22:04:37.014Z,7.07
2022-08-16T22:07:05.958Z,6.77
2022-08-16T22:09:33.284Z,7.10
2022-08-16T22:12:00.027Z,6.93
2022-08-16T22:14:27.140Z,7.30
2022-08-16T22:16:54.097Z,6.63
2022-08-16T22:19:23.441Z,7.30
2022-08-16T22:21:52.153Z,7.37
2022-08-16T22:24:18.950Z,7.00
2022-08-16T22:26:46.015Z,8.20
2022-08-16T22:29:14.283Z,6.87
2022-08-16T22:31:42.600Z,8.37
2022-08-16T22:34:09.419Z,7.23
2022-08-16T22:36:38.700Z,6.80
2022-08-16T22:39:08.800Z,11.27
2022-08-16T22:41:37.268Z,7.20
2022-08-16T22:44:06.267Z,8.30
2022-08-16T22:46:36.436Z,7.50
2022-08-16T22:49:06.411Z,7.77
2022-08-16T22:51:34.046Z,12.00
2022-08-16T22:54:33.824Z,18.90
2022-08-16T22:56:48.147Z,21.03
2022-08-16T22:59:15.326Z,11.60
2022-08-16T23:01:42.274Z,11.83
2022-08-16T23:04:09.462Z,12.00
2022-08-16T23:06:36.210Z,14.07
2022-08-16T23:09:03.630Z,16.10
2022-08-16T23:11:31.348Z,12.63
2022-08-16T23:13:59.863Z,14.27
2022-08-16T23:19:16.887Z,14.60
2022-08-16T23:21:48.369Z,14.30
2022-08-16T23:24:17.721Z,12.70
2022-08-16T23:26:48.434Z,10.63
2022-08-16T23:29:26.028Z,9.60
2022-08-16T23:31:59.429Z,12.10
2022-08-16T23:34:28.459Z,11.80
2022-08-16T23:36:55.610Z,11.00
2022-08-16T23:39:23.647Z,10.87
2022-08-16T23:41:50.425Z,10.57
2022-08-16T23:44:44.148Z,9.87
2022-08-16T23:47:06.165Z,8.43
2022-08-16T23:49:57.135Z,9.07
2022-08-16T23:52:53.944Z,9.40
2022-08-16T23:55:08.140Z,9.30
2022-08-16T23:57:34.889Z,9.20
